To NAV CANADA Home Page Login to a new session Search on AWWS site Disclaimer Vers la page française équivalente Tips FAQ What's new on the site To the Forecasts and Observations / NOTAM section To "File a Flight Plan" website Publications and other links Update of the User's profile FIC Telephone Numbers My Weather Data Folder Route Weather Data Regional Weather Data Local Weather Data To the Forecasts and Observations / NOTAM section
Request Generated 03/19/2019 at 23:23:30 UTC . Weather information available at that time is displayed.

METAR/TAF

GREENWOOD/NS    

METAR CYZX 192300Z 28010KT 15SM FEW060 M02/M11 A3030 RMK SC1 SLP262=
METAR CYZX 192200Z 28010KT 15SM FEW050 M00/M11 A3028 RMK SC1 SLP256=
METAR CYZX 192100Z 30012KT 15SM SKC 00/M13 A3026 RMK SLP251=

TAF CYZX 191730Z 1918/2018 27012KT P6SM FEW050
FM192300 25005KT P6SM SCT040 TEMPO 1923/2002 BKN040
BECMG 1923/2001 VRB03KT
FM200600 VRB03KT P6SM SKC
BECMG 2013/2015 27015KT
RMK NXT FCST BY 200000Z=
Your time UTC time
Weather data provided by Environment Canada and NAV CANADA